LUZ weather

Lublin Airport
Lublin, Lublin, Poland

Public forecast

Using degrees Celsius for public forecast. Weather courtesy of forecast.io.

METAR (pilot weather report)

Closest report is Radom Airport, 57.0 nm (105.6 km) W. Retrieved 2019/03/23 13:30 UTC (1 hour ago):

EPRA 231330Z 19006KT 150V220 CAVOK 15/M03 Q1025

TAF (pilot weather forecast)

Forecast is more than 12 hours old.

Closest forecast is Brest Airport, 68.3 nm (126.4 km) NE. Retrieved 2018/08/29 12:21 UTC (7 months ago):

TAF UMBB 291405Z 2912/2924 34005MPS 6000 BKN015 TEMPO 2915/2918 3000 -SHRA SCT020CB TEMPO 2918/2924 2000 BR BKN005